Time;durP1;ratioP1;P1;durP2;ratioP2;P2;SDS_P1;SDS_P2;PMS_P1;PMS_P2;Temp;Humidity;BMP_temperature;BMP_pressure;BME280_temperature;BME280_humidity;BME280_pressure;Samples;Min_cycle;Max_cycle;Signal;HPM_P1;HPM_P2
2023/10/25 00:02:13;;;;;;;0.30;0.30;;;;;;;6.83;100.00;98152.78;4981951;28;20519;-60
2023/10/25 00:04:40;;;;;;;0.40;0.40;;;;;;;6.57;100.00;98152.41;4985011;28;20503;-60
2023/10/25 00:07:07;;;;;;;0.30;0.30;;;;;;;6.60;100.00;98156.44;4986693;28;20058;-60
2023/10/25 00:09:37;;;;;;;0.40;0.40;;;;;;;6.78;100.00;98158.84;4984832;28;20448;-60
2023/10/25 00:12:04;;;;;;;0.40;0.40;;;;;;;6.81;100.00;98161.00;4986484;28;20039;-59
2023/10/25 00:14:31;;;;;;;0.30;0.30;;;;;;;6.96;100.00;98165.75;4987954;28;20046;-60
2023/10/25 00:16:58;;;;;;;0.30;0.30;;;;;;;6.66;100.00;98158.94;4981209;28;20093;-60
2023/10/25 00:19:25;;;;;;;0.30;0.30;;;;;;;6.49;100.00;98163.47;4985831;28;20046;-60
2023/10/25 00:21:52;;;;;;;0.40;0.40;;;;;;;6.32;100.00;98165.31;4984472;28;20117;-60
2023/10/25 00:24:19;;;;;;;0.30;0.30;;;;;;;6.23;100.00;98151.56;4984330;28;20048;-60
2023/10/25 00:26:48;;;;;;;0.30;0.30;;;;;;;6.15;100.00;98150.13;4984427;28;20066;-60
2023/10/25 00:29:15;;;;;;;0.35;0.35;;;;;;;6.11;100.00;98153.50;4991407;28;20089;-60
2023/10/25 00:31:42;;;;;;;0.40;0.40;;;;;;;6.17;100.00;98149.91;4985059;28;20137;-60
2023/10/25 00:34:09;;;;;;;0.32;0.32;;;;;;;6.32;100.00;98152.00;4987883;28;20038;-60
2023/10/25 00:36:36;;;;;;;0.30;0.30;;;;;;;6.22;100.00;98153.44;4986292;28;20408;-60
2023/10/25 00:39:04;;;;;;;0.32;0.32;;;;;;;6.23;100.00;98160.38;4980102;28;20046;-60
2023/10/25 00:41:31;;;;;;;0.30;0.30;;;;;;;6.28;100.00;98151.66;4982030;28;20520;-60
2023/10/25 00:43:59;;;;;;;0.30;0.30;;;;;;;6.31;100.00;98156.50;4981242;28;20476;-60
2023/10/25 00:46:26;;;;;;;0.30;0.30;;;;;;;6.29;100.00;98155.97;4984393;28;20046;-60
2023/10/25 00:48:55;;;;;;;0.30;0.30;;;;;;;6.34;100.00;98158.69;4982935;28;20122;-60
2023/10/25 00:51:23;;;;;;;0.30;0.30;;;;;;;6.39;100.00;98158.78;4987242;28;20500;-60
2023/10/25 00:53:51;;;;;;;0.30;0.30;;;;;;;6.42;100.00;98154.84;4981442;28;20046;-60
2023/10/25 00:56:18;;;;;;;0.30;0.30;;;;;;;6.43;100.00;98146.59;4986635;28;20070;-60
2023/10/25 00:58:49;;;;;;;0.30;0.30;;;;;;;6.30;100.00;98148.78;5005397;28;20125;-60
2023/10/25 01:01:18;;;;;;;0.32;0.32;;;;;;;6.28;100.00;98146.34;4989891;28;20081;-60
2023/10/25 01:03:47;;;;;;;0.30;0.30;;;;;;;6.31;100.00;98153.03;4985305;28;20101;-60
2023/10/25 01:06:13;;;;;;;0.30;0.30;;;;;;;6.33;100.00;98150.94;4982084;28;20149;-60
2023/10/25 01:08:40;;;;;;;0.30;0.30;;;;;;;6.36;100.00;98148.59;4968836;28;20047;-60
2023/10/25 01:11:07;;;;;;;0.30;0.30;;;;;;;6.56;100.00;98147.31;4981790;28;20386;-60
2023/10/25 01:13:35;;;;;;;0.40;0.40;;;;;;;6.68;100.00;98145.38;4985850;28;20105;-60
2023/10/25 01:16:02;;;;;;;0.30;0.30;;;;;;;6.65;100.00;98146.66;4989764;28;20034;-60
2023/10/25 01:18:30;;;;;;;0.32;0.32;;;;;;;6.74;100.00;98139.09;4984383;28;20472;-60
2023/10/25 01:20:57;;;;;;;0.30;0.30;;;;;;;6.89;100.00;98141.97;4984654;28;20046;-60
2023/10/25 01:23:27;;;;;;;0.30;0.30;;;;;;;6.80;100.00;98134.63;4984410;28;20035;-60
2023/10/25 01:25:54;;;;;;;0.30;0.30;;;;;;;6.72;100.00;98135.06;4986603;28;20513;-60
2023/10/25 01:28:21;;;;;;;0.28;0.28;;;;;;;6.60;100.00;98135.94;4987683;28;20042;-60
2023/10/25 01:30:48;;;;;;;0.20;0.20;;;;;;;6.55;100.00;98130.53;4985804;28;20054;-60
2023/10/25 01:33:15;;;;;;;0.30;0.30;;;;;;;6.50;100.00;98121.69;4982615;28;20042;-60
2023/10/25 01:35:45;;;;;;;0.40;0.40;;;;;;;6.47;100.00;98114.97;4978957;28;20046;-60
2023/10/25 01:38:12;;;;;;;0.30;0.30;;;;;;;6.39;100.00;98115.38;4976809;28;20049;-60
2023/10/25 01:40:41;;;;;;;0.30;0.30;;;;;;;6.50;100.00;98109.16;4985248;28;20469;-60
2023/10/25 01:43:09;;;;;;;0.40;0.40;;;;;;;6.57;100.00;98104.47;4984193;28;20050;-60
2023/10/25 01:45:37;;;;;;;0.30;0.30;;;;;;;6.73;100.00;98104.69;4985299;28;20086;-60
2023/10/25 01:48:04;;;;;;;0.30;0.30;;;;;;;6.63;100.00;98111.47;4980909;28;20042;-60
2023/10/25 01:50:32;;;;;;;0.30;0.30;;;;;;;6.58;100.00;98108.75;4980175;28;20157;-60
2023/10/25 01:52:59;;;;;;;0.30;0.30;;;;;;;6.52;100.00;98104.41;4979516;28;20097;-60
2023/10/25 01:55:26;;;;;;;0.30;0.30;;;;;;;6.42;100.00;98105.06;4985883;28;20050;-60
2023/10/25 01:57:54;;;;;;;0.22;0.22;;;;;;;6.35;100.00;98098.28;4988549;28;20054;-60
2023/10/25 02:00:21;;;;;;;0.40;0.40;;;;;;;6.19;100.00;98105.19;4984573;28;20047;-60
2023/10/25 02:02:49;;;;;;;0.35;0.35;;;;;;;6.20;100.00;98102.31;4989370;28;20042;-60
2023/10/25 02:05:16;;;;;;;0.25;0.25;;;;;;;6.13;100.00;98093.69;4987343;28;20200;-60
2023/10/25 02:07:44;;;;;;;0.30;0.30;;;;;;;6.17;100.00;98081.53;4995150;28;20047;-60
2023/10/25 02:10:11;;;;;;;0.30;0.30;;;;;;;6.00;100.00;98080.69;4989446;28;20050;-59
2023/10/25 02:12:39;;;;;;;0.30;0.30;;;;;;;6.15;100.00;98077.50;4988323;28;20034;-59
2023/10/25 02:15:09;;;;;;;0.25;0.25;;;;;;;6.09;100.00;98078.44;4987093;28;20100;-59
2023/10/25 02:17:39;;;;;;;0.20;0.20;;;;;;;6.04;100.00;98081.81;4988469;28;20057;-59
2023/10/25 02:20:08;;;;;;;0.40;0.40;;;;;;;5.95;100.00;98072.63;4978229;28;20065;-59
2023/10/25 02:22:35;;;;;;;0.50;0.50;;;;;;;5.77;100.00;98079.75;5000132;28;20455;-59
2023/10/25 02:25:02;;;;;;;0.40;0.40;;;;;;;5.51;100.00;98069.69;4987081;28;20051;-60
2023/10/25 02:27:30;;;;;;;0.30;0.30;;;;;;;5.58;100.00;98062.38;4988109;28;20051;-59
2023/10/25 02:29:57;;;;;;;0.35;0.35;;;;;;;5.64;100.00;98058.75;4988251;28;20129;-59
2023/10/25 02:32:26;;;;;;;0.30;0.30;;;;;;;5.61;100.00;98056.59;4984299;28;20137;-59
2023/10/25 02:34:53;;;;;;;0.30;0.30;;;;;;;5.75;100.00;98055.25;4983986;28;20074;-59
2023/10/25 02:37:20;;;;;;;0.30;0.30;;;;;;;5.90;100.00;98059.22;4986890;28;20151;-59
2023/10/25 02:39:48;;;;;;;0.30;0.30;;;;;;;5.86;100.00;98061.53;4985206;28;20145;-59
2023/10/25 02:42:15;;;;;;;0.30;0.30;;;;;;;5.82;100.00;98058.56;4987130;28;20047;-58
2023/10/25 02:44:42;;;;;;;0.32;0.32;;;;;;;5.75;100.00;98054.44;4986153;28;20047;-59
2023/10/25 02:47:09;;;;;;;0.50;0.50;;;;;;;5.70;100.00;98049.06;4999081;28;20097;-58
2023/10/25 02:49:38;;;;;;;0.63;0.63;;;;;;;5.63;100.00;98050.00;4982376;28;20038;-59
2023/10/25 02:52:05;;;;;;;1.15;1.15;;;;;;;5.59;100.00;98048.03;4986274;28;20038;-59
2023/10/25 02:54:32;;;;;;;2.58;1.90;;;;;;;5.33;100.00;98044.13;4979963;28;20097;-59
2023/10/25 02:56:59;;;;;;;3.33;2.45;;;;;;;5.14;100.00;98032.88;4988708;28;20488;-59
2023/10/25 02:59:26;;;;;;;1.88;1.40;;;;;;;5.16;100.00;98028.13;4987282;28;20596;-59
2023/10/25 03:01:54;;;;;;;1.15;1.05;;;;;;;5.22;100.00;98032.50;4983043;28;20066;-59
2023/10/25 03:04:21;;;;;;;0.75;0.75;;;;;;;5.26;100.00;98033.63;4985495;28;20129;-59
2023/10/25 03:06:49;;;;;;;1.33;1.00;;;;;;;5.34;100.00;98024.47;4983817;28;20125;-59
2023/10/25 03:09:17;;;;;;;1.10;1.00;;;;;;;5.26;100.00;98028.31;4979124;28;20046;-59
2023/10/25 03:11:49;;;;;;;0.80;0.80;;;;;;;5.23;100.00;98017.38;4985968;28;20050;-59
2023/10/25 03:14:16;;;;;;;0.85;0.80;;;;;;;5.22;100.00;98019.22;4984403;28;20080;-59
2023/10/25 03:16:46;;;;;;;0.70;0.70;;;;;;;5.22;100.00;98019.22;4981720;28;20041;-59
2023/10/25 03:19:13;;;;;;;1.52;1.17;;;;;;;5.14;100.00;98020.41;4983787;28;20046;-59
2023/10/25 03:21:40;;;;;;;1.80;1.33;;;;;;;5.05;100.00;98016.50;4983729;28;20184;-60
2023/10/25 03:24:12;;;;;;;2.25;1.38;;;;;;;5.01;100.00;98006.59;4980068;28;20108;-59
2023/10/25 03:26:39;;;;;;;1.52;1.20;;;;;;;4.94;100.00;98007.53;4983230;28;20042;-59
2023/10/25 03:29:06;;;;;;;1.08;1.00;;;;;;;4.96;100.00;98010.75;4985385;28;20112;-59
2023/10/25 03:31:36;;;;;;;1.15;0.90;;;;;;;4.87;100.00;98004.22;4982888;28;20073;-59
2023/10/25 03:34:03;;;;;;;1.15;0.98;;;;;;;4.94;100.00;97999.59;4984847;28;20038;-59
2023/10/25 03:36:30;;;;;;;1.08;0.80;;;;;;;4.94;100.00;97994.28;4981873;28;20068;-59
2023/10/25 03:38:57;;;;;;;0.90;0.77;;;;;;;4.96;100.00;97981.53;4983091;28;20046;-59
2023/10/25 03:41:25;;;;;;;0.93;0.80;;;;;;;5.02;100.00;97986.94;4982689;28;20362;-59
2023/10/25 03:43:52;;;;;;;1.20;1.10;;;;;;;5.10;100.00;97997.22;4979919;28;20050;-59
2023/10/25 03:46:20;;;;;;;1.90;1.27;;;;;;;4.97;100.00;97988.47;4983993;28;20248;-59
2023/10/25 03:48:47;;;;;;;0.98;0.90;;;;;;;4.91;100.00;97989.41;4982861;28;20042;-59
2023/10/25 03:51:14;;;;;;;1.30;1.20;;;;;;;4.97;100.00;97985.81;5014716;28;20569;-59
2023/10/25 03:53:41;;;;;;;0.55;0.55;;;;;;;5.03;100.00;97984.06;4995829;28;20033;-59
2023/10/25 03:56:08;;;;;;;0.77;0.75;;;;;;;4.92;100.00;97980.41;4981795;28;20053;-59
2023/10/25 03:58:36;;;;;;;1.45;1.00;;;;;;;5.00;100.00;97981.09;4982244;28;20078;-59
2023/10/25 04:01:04;;;;;;;0.70;0.70;;;;;;;4.98;100.00;97983.97;4980799;28;20525;-59
2023/10/25 04:03:31;;;;;;;0.60;0.60;;;;;;;5.01;100.00;97980.03;4982787;28;20285;-59
2023/10/25 04:05:58;;;;;;;0.80;0.80;;;;;;;4.98;100.00;97973.34;4975810;28;20501;-59
2023/10/25 04:08:25;;;;;;;1.30;1.00;;;;;;;5.02;100.00;97973.66;4967478;28;20047;-59
2023/10/25 04:10:57;;;;;;;0.82;0.82;;;;;;;4.95;100.00;97971.97;4975584;28;20052;-59
2023/10/25 04:13:24;;;;;;;1.00;0.90;;;;;;;4.76;100.00;97970.53;4980997;28;20027;-59
2023/10/25 04:15:56;;;;;;;0.63;0.63;;;;;;;4.85;100.00;97969.13;4978648;28;20544;-59
2023/10/25 04:18:24;;;;;;;0.60;0.60;;;;;;;4.86;100.00;97969.94;4981245;28;20563;-59
2023/10/25 04:20:51;;;;;;;0.55;0.55;;;;;;;4.90;100.00;97965.75;4981314;28;20397;-59
2023/10/25 04:23:18;;;;;;;1.20;0.85;;;;;;;4.89;100.00;97964.97;4979324;28;20053;-59
2023/10/25 04:25:45;;;;;;;1.17;1.08;;;;;;;4.83;100.00;97962.44;5014449;28;20145;-59
2023/10/25 04:28:13;;;;;;;0.70;0.70;;;;;;;4.80;100.00;97963.72;5015578;28;20050;-59
2023/10/25 04:30:40;;;;;;;0.90;0.90;;;;;;;4.84;100.00;97962.22;4984748;28;20035;-59
2023/10/25 04:33:09;;;;;;;0.98;0.98;;;;;;;4.90;100.00;97955.94;4978912;28;20101;-59
2023/10/25 04:35:36;;;;;;;0.70;0.70;;;;;;;4.97;100.00;97948.66;4982832;28;20053;-59
2023/10/25 04:38:03;;;;;;;0.47;0.47;;;;;;;4.97;100.00;97940.69;4978930;28;20058;-59
2023/10/25 04:40:31;;;;;;;1.05;0.98;;;;;;;5.00;100.00;97938.59;4982285;28;20035;-59
2023/10/25 04:42:58;;;;;;;1.33;1.08;;;;;;;4.96;100.00;97938.25;4986374;28;20039;-59
2023/10/25 04:45:25;;;;;;;1.08;1.00;;;;;;;4.74;100.00;97938.09;4998682;28;20061;-59
2023/10/25 04:47:53;;;;;;;0.75;0.75;;;;;;;4.92;100.00;97929.97;4981170;28;20571;-59
2023/10/25 04:50:21;;;;;;;0.57;0.57;;;;;;;4.93;100.00;97939.53;4981314;28;20129;-59
2023/10/25 04:52:52;;;;;;;0.70;0.70;;;;;;;4.88;100.00;97942.09;4982827;28;20046;-59
2023/10/25 04:55:21;;;;;;;0.77;0.77;;;;;;;4.90;100.00;97925.94;4978947;28;20035;-59
2023/10/25 04:57:48;;;;;;;0.55;0.55;;;;;;;4.90;100.00;97918.78;4980307;28;20142;-59
2023/10/25 05:00:15;;;;;;;0.63;0.63;;;;;;;4.85;100.00;97921.34;4985961;28;20262;-59
2023/10/25 05:02:42;;;;;;;0.93;0.93;;;;;;;4.79;100.00;97919.63;4984136;28;20042;-60
2023/10/25 05:05:08;;;;;;;0.70;0.70;;;;;;;4.74;100.00;97901.78;4982040;28;20125;-59
2023/10/25 05:07:38;;;;;;;0.77;0.75;;;;;;;4.69;100.00;97914.94;4981914;28;20069;-59
2023/10/25 05:10:06;;;;;;;1.00;0.90;;;;;;;4.48;100.00;97919.03;4990543;28;20139;-59
2023/10/25 05:12:38;;;;;;;2.10;1.42;;;;;;;4.40;100.00;97908.78;4983393;28;20128;-59
2023/10/25 05:15:06;;;;;;;1.73;1.27;;;;;;;4.29;100.00;97904.31;4982346;28;20050;-59
2023/10/25 05:17:34;;;;;;;2.45;1.58;;;;;;;4.04;100.00;97910.72;4987615;28;20042;-59
2023/10/25 05:20:03;;;;;;;3.28;2.08;;;;;;;4.06;100.00;97903.31;4985129;28;20066;-59
2023/10/25 05:22:30;;;;;;;1.50;1.30;;;;;;;4.09;100.00;97908.16;4986584;28;20207;-60
2023/10/25 05:24:59;;;;;;;0.60;0.60;;;;;;;4.10;100.00;97898.38;4981395;28;20278;-59
2023/10/25 05:27:26;;;;;;;0.90;0.90;;;;;;;4.04;100.00;97892.16;4977047;28;20134;-59
2023/10/25 05:29:54;;;;;;;1.42;1.10;;;;;;;4.05;100.00;97896.41;4984598;28;20046;-59
2023/10/25 05:32:21;;;;;;;1.65;1.23;;;;;;;4.15;100.00;97887.06;4986716;28;20567;-59
2023/10/25 05:34:49;;;;;;;0.80;0.80;;;;;;;4.14;100.00;97888.09;4984438;28;20042;-59
2023/10/25 05:37:17;;;;;;;1.13;1.00;;;;;;;4.16;100.00;97872.75;4988318;28;20050;-59
2023/10/25 05:39:45;;;;;;;1.52;1.10;;;;;;;4.17;100.00;97872.53;4986162;28;20145;-59
2023/10/25 05:42:17;;;;;;;0.80;0.80;;;;;;;4.27;100.00;97871.94;4986336;28;20492;-59
2023/10/25 05:44:45;;;;;;;1.45;1.20;;;;;;;4.19;100.00;97874.94;4989820;28;20069;-60
2023/10/25 05:47:12;;;;;;;1.85;1.30;;;;;;;4.19;100.00;97865.13;4983255;28;20149;-60
2023/10/25 05:49:40;;;;;;;1.48;1.10;;;;;;;4.20;100.00;97855.34;4986879;28;20038;-59
2023/10/25 05:52:11;;;;;;;1.83;1.20;;;;;;;4.20;100.00;97860.63;4988097;28;22034;-59
2023/10/25 05:54:39;;;;;;;1.85;1.30;;;;;;;4.16;100.00;97862.13;4986608;28;20046;-59
2023/10/25 05:57:07;;;;;;;1.08;0.98;;;;;;;4.16;100.00;97856.84;4988226;28;20409;-59
2023/10/25 05:59:37;;;;;;;1.85;1.30;;;;;;;4.18;100.00;97862.72;4998650;28;20101;-59
2023/10/25 06:02:09;;;;;;;1.83;1.38;;;;;;;4.14;100.00;97857.06;4988472;28;20038;-59
2023/10/25 06:04:37;;;;;;;3.30;1.70;;;;;;;4.08;100.00;97855.34;4987029;28;20046;-59
2023/10/25 06:07:05;;;;;;;3.03;1.65;;;;;;;3.91;100.00;97857.91;5006267;28;20057;-59
2023/10/25 06:09:33;;;;;;;2.53;1.60;;;;;;;3.76;100.00;97849.63;4987161;28;20050;-59
2023/10/25 06:12:01;;;;;;;3.47;2.15;;;;;;;3.71;100.00;97857.47;4988254;28;20134;-60
2023/10/25 06:14:28;;;;;;;3.63;2.15;;;;;;;3.72;100.00;97851.13;4984226;28;20100;-59
2023/10/25 06:16:57;;;;;;;3.47;2.13;;;;;;;3.66;100.00;97843.06;4988466;28;20042;-59
2023/10/25 06:19:24;;;;;;;3.40;2.03;;;;;;;3.61;100.00;97848.25;4982071;28;20053;-59
2023/10/25 06:21:53;;;;;;;2.65;1.90;;;;;;;3.56;100.00;97845.50;4968688;28;20686;-59
2023/10/25 06:24:20;;;;;;;2.35;1.48;;;;;;;3.46;100.00;97835.47;4987887;28;20050;-59
2023/10/25 06:26:51;;;;;;;1.10;1.00;;;;;;;3.42;100.00;97822.91;4989075;28;20508;-59
2023/10/25 06:29:18;;;;;;;2.42;1.40;;;;;;;3.37;100.00;97820.16;4988045;28;20093;-59
2023/10/25 06:31:51;;;;;;;1.58;1.20;;;;;;;3.56;100.00;97824.31;4984051;28;20133;-59
2023/10/25 06:34:22;;;;;;;0.80;0.80;;;;;;;3.75;100.00;97813.59;4985448;28;20042;-59
2023/10/25 06:36:50;;;;;;;1.38;1.10;;;;;;;3.71;100.00;97817.72;4988586;28;20648;-59
2023/10/25 06:39:17;;;;;;;1.70;1.30;;;;;;;3.72;100.00;97800.78;4983323;28;20094;-59
2023/10/25 06:41:47;;;;;;;0.77;0.77;;;;;;;3.96;100.00;97797.03;4985446;28;20045;-59
2023/10/25 06:44:16;;;;;;;1.27;1.08;;;;;;;4.17;100.00;97792.13;4984332;28;20045;-59
2023/10/25 06:46:44;;;;;;;0.60;0.60;;;;;;;4.20;100.00;97792.50;4981329;28;20053;-59
2023/10/25 06:49:14;;;;;;;0.70;0.70;;;;;;;4.38;100.00;97786.19;4981025;28;20401;-59
2023/10/25 06:51:43;;;;;;;0.82;0.82;;;;;;;4.57;100.00;97786.81;4983327;28;20035;-59
2023/10/25 06:54:12;;;;;;;1.13;1.03;;;;;;;4.60;100.00;97791.63;4987716;28;20081;-59
2023/10/25 06:56:40;;;;;;;0.75;0.75;;;;;;;4.79;100.00;97789.53;4988171;28;20428;-60
2023/10/25 06:59:07;;;;;;;1.45;1.15;;;;;;;4.85;100.00;97772.66;4987377;28;20121;-60
2023/10/25 07:01:35;;;;;;;1.40;1.10;;;;;;;4.83;100.00;97764.13;4986728;28;20046;-60
2023/10/25 07:04:02;;;;;;;1.75;1.20;;;;;;;4.68;100.00;97761.22;4986642;28;20077;-60
2023/10/25 07:06:30;;;;;;;0.82;0.82;;;;;;;4.75;100.00;97756.56;4984987;28;20057;-60
2023/10/25 07:08:59;;;;;;;1.02;0.95;;;;;;;4.77;100.00;97743.88;4991231;28;20054;-60
2023/10/25 07:11:29;;;;;;;0.70;0.70;;;;;;;4.95;100.00;97738.31;4986751;28;20046;-60
2023/10/25 07:13:56;;;;;;;0.75;0.75;;;;;;;4.73;100.00;97727.59;4988180;28;20503;-60
2023/10/25 07:16:23;;;;;;;1.40;1.10;;;;;;;4.48;100.00;97738.59;4991146;28;20510;-60
2023/10/25 07:18:50;;;;;;;1.10;1.00;;;;;;;4.76;100.00;97726.31;4992457;28;20050;-60
2023/10/25 07:21:18;;;;;;;1.17;0.95;;;;;;;5.00;100.00;97720.84;4986257;28;20042;-60
2023/10/25 07:23:45;;;;;;;1.20;1.08;;;;;;;5.03;100.00;97717.72;4981793;28;20697;-60
2023/10/25 07:26:14;;;;;;;1.30;1.00;;;;;;;5.10;100.00;97707.72;4982379;28;20062;-60
2023/10/25 07:28:41;;;;;;;0.85;0.85;;;;;;;5.15;100.00;97713.91;4990318;28;20046;-60
2023/10/25 07:31:08;;;;;;;1.60;1.15;;;;;;;5.27;100.00;97718.31;4985610;28;20062;-60
2023/10/25 07:33:35;;;;;;;1.58;1.00;;;;;;;5.56;100.00;97703.00;4986150;28;20038;-60
2023/10/25 07:36:03;;;;;;;0.60;0.60;;;;;;;5.49;100.00;97697.06;4988776;28;20652;-60
2023/10/25 07:38:31;;;;;;;1.30;1.13;;;;;;;5.50;100.00;97688.88;4984375;28;20073;-60
2023/10/25 07:41:01;;;;;;;0.77;0.77;;;;;;;5.57;100.00;97686.03;4985622;28;20042;-60
2023/10/25 07:43:30;;;;;;;1.10;0.95;;;;;;;5.70;100.00;97683.00;5015002;28;20216;-60
2023/10/25 07:45:57;;;;;;;0.90;0.90;;;;;;;5.67;100.00;97678.19;4980247;28;20142;-61
2023/10/25 07:48:24;;;;;;;0.82;0.77;;;;;;;5.57;100.00;97680.72;4982637;28;20552;-60
2023/10/25 07:50:54;;;;;;;1.42;0.95;;;;;;;5.50;100.00;97685.41;4983092;28;20125;-60
2023/10/25 07:53:22;;;;;;;1.65;1.10;;;;;;;5.64;100.00;97689.28;4986006;28;20073;-60
2023/10/25 07:55:52;;;;;;;0.82;0.80;;;;;;;5.75;100.00;97683.03;4983177;28;20042;-60
2023/10/25 07:58:20;;;;;;;;;;;;;;;5.90;100.00;97681.63;4998618;28;20053;-60
2023/10/25 08:00:51;;;;;;;0.50;0.50;;;;;;;6.10;100.00;97689.81;4984802;28;19921;-60
2023/10/25 08:03:18;;;;;;;0.65;0.65;;;;;;;6.35;100.00;97680.47;4987459;28;20563;-60
2023/10/25 08:05:45;;;;;;;0.73;0.73;;;;;;;6.70;100.00;97674.66;4986148;28;20054;-60
2023/10/25 08:08:12;;;;;;;0.50;0.50;;;;;;;6.77;100.00;97674.44;4984453;28;20508;-60
2023/10/25 08:10:40;;;;;;;0.38;0.38;;;;;;;6.89;100.00;97672.41;4988493;28;20042;-60
2023/10/25 08:13:07;;;;;;;0.80;0.80;;;;;;;6.82;100.00;97667.28;4984577;28;20130;-59
2023/10/25 08:15:36;;;;;;;0.50;0.50;;;;;;;6.76;100.00;97644.31;4978784;28;20070;-59
2023/10/25 08:18:05;;;;;;;0.55;0.55;;;;;;;6.48;100.00;97629.50;4984040;28;20623;-60
2023/10/25 08:20:36;;;;;;;0.47;0.47;;;;;;;6.38;100.00;97624.09;4997453;28;20093;-60
2023/10/25 08:23:02;;;;;;;;;;;;;;;6.62;100.00;97620.00;4987938;28;20034;-59
2023/10/25 08:25:29;;;;;;;0.30;0.30;;;;;;;6.60;100.00;97606.16;4982006;28;20384;-59
2023/10/25 08:27:57;;;;;;;0.30;0.30;;;;;;;6.37;100.00;97590.56;4984505;28;20128;-59
2023/10/25 08:30:24;;;;;;;0.38;0.38;;;;;;;6.55;100.00;97586.69;4987785;28;20042;-59
2023/10/25 08:32:54;;;;;;;0.32;0.32;;;;;;;6.77;100.00;97586.56;4986162;28;20444;-59
2023/10/25 08:35:22;;;;;;;0.30;0.30;;;;;;;6.96;100.00;97592.25;4980469;28;20074;-58
2023/10/25 08:37:52;;;;;;;0.30;0.30;;;;;;;7.16;100.00;97594.19;4976086;28;20046;-59
2023/10/25 08:40:20;;;;;;;0.30;0.30;;;;;;;7.45;100.00;97598.06;4989219;28;20708;-60
2023/10/25 08:42:48;;;;;;;0.32;0.32;;;;;;;7.40;100.00;97592.69;4984461;28;20046;-60
2023/10/25 08:45:15;;;;;;;0.30;0.30;;;;;;;7.51;100.00;97583.69;4982564;28;20098;-60
2023/10/25 08:47:42;;;;;;;0.40;0.40;;;;;;;7.40;100.00;97581.25;4974799;28;20079;-59
2023/10/25 08:50:10;;;;;;;0.30;0.30;;;;;;;7.38;100.00;97573.50;4985494;28;20086;-59
2023/10/25 08:52:38;;;;;;;0.30;0.30;;;;;;;7.46;100.00;97575.69;4991060;28;20602;-60
2023/10/25 08:55:08;;;;;;;0.20;0.20;;;;;;;7.43;100.00;97576.19;4989514;28;20157;-60
2023/10/25 08:57:35;;;;;;;0.20;0.20;;;;;;;7.32;100.00;97570.03;4985707;28;20555;-59
2023/10/25 09:00:02;;;;;;;0.10;0.10;;;;;;;7.33;100.00;97581.47;4983788;28;20060;-59
2023/10/25 09:02:29;;;;;;;0.20;0.20;;;;;;;7.19;100.00;97577.69;4986652;28;20045;-60
2023/10/25 09:05:02;;;;;;;0.20;0.20;;;;;;;7.24;100.00;97567.88;4986833;28;20038;-59
2023/10/25 09:07:30;;;;;;;0.20;0.20;;;;;;;7.17;100.00;97561.19;4987337;28;20449;-59
2023/10/25 09:09:59;;;;;;;0.28;0.28;;;;;;;7.13;100.00;97563.56;4988643;28;20046;-59
2023/10/25 09:12:26;;;;;;;0.30;0.30;;;;;;;7.22;100.00;97559.34;4990040;28;20097;-59
2023/10/25 09:14:53;;;;;;;0.30;0.30;;;;;;;7.25;100.00;97561.47;4990044;28;20489;-59
2023/10/25 09:17:20;;;;;;;0.30;0.30;;;;;;;7.25;100.00;97558.00;4984002;28;20444;-59
2023/10/25 09:19:51;;;;;;;0.30;0.30;;;;;;;7.18;100.00;97552.13;4989987;28;20046;-60
2023/10/25 09:22:21;;;;;;;;;;;;;;;7.20;100.00;97555.31;4990064;28;20038;-59
2023/10/25 09:24:52;;;;;;;0.30;0.30;;;;;;;7.22;100.00;97547.88;4985128;28;19928;-59
2023/10/25 09:27:20;;;;;;;0.30;0.30;;;;;;;7.21;100.00;97548.94;4989301;28;20108;-59
2023/10/25 09:29:47;;;;;;;0.30;0.30;;;;;;;7.18;100.00;97541.47;4984275;28;20097;-60
2023/10/25 09:32:15;;;;;;;0.30;0.30;;;;;;;7.17;100.00;97529.22;4985998;28;20060;-59
2023/10/25 09:34:42;;;;;;;0.30;0.30;;;;;;;7.22;100.00;97531.88;4989069;28;20046;-59
2023/10/25 09:37:09;;;;;;;0.30;0.30;;;;;;;7.32;100.00;97529.25;4991758;28;20050;-59
2023/10/25 09:39:37;;;;;;;0.30;0.30;;;;;;;7.29;100.00;97524.47;4988281;28;20139;-59
2023/10/25 09:42:09;;;;;;;;;;;;;;;7.35;100.00;97515.41;4991880;28;20405;-59
2023/10/25 09:44:38;;;;;;;0.30;0.30;;;;;;;7.24;100.00;97509.25;4993167;28;20332;-59
2023/10/25 09:47:07;;;;;;;0.30;0.30;;;;;;;7.27;100.00;97503.38;4990347;28;20105;-59
2023/10/25 09:49:34;;;;;;;0.30;0.30;;;;;;;7.31;100.00;97500.97;4982411;28;20043;-59
2023/10/25 09:52:06;;;;;;;0.30;0.30;;;;;;;7.39;100.00;97489.00;4990861;28;20057;-59
2023/10/25 09:54:34;;;;;;;0.30;0.30;;;;;;;7.52;100.00;97481.31;4989501;28;20045;-59
2023/10/25 09:57:02;;;;;;;0.20;0.20;;;;;;;7.45;100.00;97477.31;4990830;28;20073;-59
2023/10/25 09:59:34;;;;;;;0.25;0.25;;;;;;;7.41;100.00;97469.00;4987761;28;20113;-59
2023/10/25 10:02:04;;;;;;;0.30;0.30;;;;;;;7.56;100.00;97474.38;4988772;28;20642;-60
2023/10/25 10:04:39;;;;;;;0.30;0.30;;;;;;;7.54;100.00;97471.19;4992950;28;20464;-60
2023/10/25 10:07:10;;;;;;;0.20;0.20;;;;;;;7.70;100.00;97471.19;4984434;28;20054;-59
2023/10/25 10:09:44;;;;;;;0.30;0.30;;;;;;;7.68;100.00;97470.66;4983461;28;21130;-59
2023/10/25 10:12:11;;;;;;;0.30;0.30;;;;;;;7.61;100.00;97454.91;4983915;28;20405;-59
2023/10/25 10:14:39;;;;;;;0.38;0.38;;;;;;;7.60;100.00;97457.84;4984876;28;20130;-60
2023/10/25 10:17:09;;;;;;;0.30;0.30;;;;;;;7.95;100.00;97455.16;4991480;28;20125;-60
2023/10/25 10:19:40;;;;;;;0.30;0.30;;;;;;;7.90;100.00;97446.38;4989196;28;20069;-60
2023/10/25 10:22:08;;;;;;;0.28;0.28;;;;;;;7.93;100.00;97437.84;4989565;28;20068;-60
2023/10/25 10:24:46;;;;;;;0.30;0.30;;;;;;;7.82;100.00;97437.06;4983888;28;20457;-61
2023/10/25 10:27:14;;;;;;;0.30;0.30;;;;;;;8.11;100.00;97436.47;4984606;28;20039;-60
2023/10/25 10:29:42;;;;;;;0.30;0.30;;;;;;;8.37;100.00;97424.66;4985170;28;20034;-60
2023/10/25 10:32:10;;;;;;;0.20;0.20;;;;;;;8.43;100.00;97418.25;4985237;28;20043;-60
2023/10/25 10:34:39;;;;;;;0.30;0.30;;;;;;;8.56;100.00;97405.41;4986371;28;20050;-60
2023/10/25 10:37:06;;;;;;;0.30;0.30;;;;;;;8.65;100.00;97403.75;4988178;28;20031;-60
2023/10/25 10:39:34;;;;;;;0.22;0.22;;;;;;;8.67;100.00;97392.81;4981561;28;20077;-60
2023/10/25 10:42:02;;;;;;;0.30;0.30;;;;;;;8.76;100.00;97394.63;4987701;28;20146;-60
2023/10/25 10:44:29;;;;;;;0.30;0.30;;;;;;;8.67;100.00;97387.47;4987263;28;20069;-60
2023/10/25 10:46:59;;;;;;;0.20;0.20;;;;;;;8.75;100.00;97377.00;4988536;28;20062;-60
2023/10/25 10:49:29;;;;;;;0.30;0.30;;;;;;;8.72;100.00;97372.22;4986671;28;20505;-60
2023/10/25 10:51:56;;;;;;;0.20;0.20;;;;;;;8.75;100.00;97366.31;4989411;28;20121;-58
2023/10/25 10:54:23;;;;;;;0.20;0.20;;;;;;;8.92;100.00;97357.16;4987576;28;20030;-58
2023/10/25 10:56:51;;;;;;;0.20;0.20;;;;;;;8.96;100.00;97348.31;4990136;28;20038;-59
2023/10/25 10:59:18;;;;;;;0.20;0.20;;;;;;;8.71;100.00;97343.09;4985225;28;20042;-59
2023/10/25 11:01:45;;;;;;;0.20;0.20;;;;;;;8.78;100.00;97340.94;4988344;28;20436;-59
2023/10/25 11:04:12;;;;;;;0.30;0.30;;;;;;;8.81;100.00;97337.69;4986721;28;20120;-59
2023/10/25 11:06:41;;;;;;;0.20;0.20;;;;;;;8.78;100.00;97325.69;4988043;28;20106;-59
2023/10/25 11:09:09;;;;;;;0.20;0.20;;;;;;;8.85;100.00;97318.16;4966009;28;20058;-59
2023/10/25 11:11:36;;;;;;;0.30;0.30;;;;;;;9.00;100.00;97311.13;4987350;28;20118;-60
2023/10/25 11:14:03;;;;;;;0.20;0.20;;;;;;;9.23;100.00;97305.03;4987957;28;20046;-59
2023/10/25 11:16:30;;;;;;;0.20;0.20;;;;;;;9.11;100.00;97295.81;4982897;28;20070;-59
2023/10/25 11:19:07;;;;;;;0.20;0.20;;;;;;;9.21;100.00;97293.03;4986266;28;20045;-59
2023/10/25 11:21:34;;;;;;;0.20;0.20;;;;;;;9.09;100.00;97293.44;4985127;28;20046;-59
2023/10/25 11:24:06;;;;;;;0.30;0.30;;;;;;;9.21;100.00;97283.16;4991242;28;20737;-60
2023/10/25 11:26:41;;;;;;;0.20;0.20;;;;;;;9.40;100.00;97272.56;4987429;28;20097;-59
2023/10/25 11:29:09;;;;;;;0.20;0.20;;;;;;;9.34;100.00;97273.69;4980752;28;20046;-59
2023/10/25 11:31:36;;;;;;;0.20;0.20;;;;;;;9.63;100.00;97264.84;4988217;28;20142;-60
2023/10/25 11:34:03;;;;;;;0.20;0.20;;;;;;;9.42;100.00;97264.25;4981899;28;20062;-59
2023/10/25 11:36:31;;;;;;;0.20;0.20;;;;;;;9.52;100.00;97256.13;4990618;28;20066;-60
2023/10/25 11:39:07;;;;;;;0.30;0.30;;;;;;;9.55;100.00;97246.75;4982111;28;20035;-59